Black Brook, Wisconsin
Current Conditions -  °F | °C
As of 3:15 AM on Wednesday 22 Oct 2014 (Local Time) from KRNH Reporting Station
Clear Clear  
Wind Chill:   Ceiling: Unl
Heat Index:   Visibility: 10mi
Dew Point:   Wind: 7mph
Humidity: 83%   Direction: 140°SE
Pressure: 30.22"   Gusts: NA
Location:  45.2417°N, 92.2543°W
Report Text: KRNH 220815Z AUTO 14006KT 10SM CLR 04/02 A3022 RMK AO2 T00410015
Loading
Personal Weather Stations






























Interactive Weather Map
Tropical Storm Tracking
New forecast layout! Learn more

10-Day Weather Forecast

Advertisements
Track Severe Weather on mobile